Terminal Aerodrome Forecast
Issued by NWS

Home | Current Version | Previous Version | Text Only | Print | Product List | Glossary Off
Versions: 1 2 3 4 5 6 7 8 9 10 11 12 13 14 15 16 17 18 19 20 21

637
FTUS42 KMHX 301725 AAA
TAFPGV
TAF AMD
KPGV 301725Z 3017/3118 09005KT 4SM SHRA OVC040
     FM310500 00000KT 4SM SHRA BKN040
     FM310600 00000KT 4SM SHRA SCT008 BKN020
     FM311400 05006KT 4SM SHRA OVC020
     FM311500 05007KT 4SM SHRA OVC040
      AMD LTD TO CLD VIS AND WIND=

USA.gov is the U.S. government's official web portal to all federal, state and local government web resources and services.